Latest Coastal Weather Observations for Coolangatta

IDQ60701

Issued at 3:31 pm EST Sunday 26 February 2017 (issued every 10 minutes, with the page automatically refreshed every 10 minutes)

About coastal observations | Map of coastal stations | Coastal observations for QLD | Marine services | Other Formats
Station Details ID: 040717 Name: COOLANGATTA Lat: -28.17 Lon: 153.51 Height: 4.0 m
Data from the previous 72 hours. | See also: Recent months at Coolangatta
Date/Time
EST
Temp
°C
Wind Pressure Rain since
9am
mm
Weather Cloud Vis
km
Sea
Height
m
Swell
Dir  Spd
kts
Gust
kts
hPa Trend Height
m
Period
s
Dir
26/03:01pm 26.4 SSE 16 26 1015.2 - 0.2 - Partly cloudy 10 - - - -
26/03:00pm 26.6 SSE 16 24 1015.2 - 0.2 - Cloudy 10 - - - -
26/02:49pm 26.8 SSE 15 25 1015.2 - 0.2 - Partly cloudy 10 - - - -
26/02:30pm 26.5 SSE 18 24 1015.2 - 0.2 - - 10 - - - -
26/02:00pm 27.7 SSE 17 23 1015.3 - 0.2 - Partly cloudy 10 - - - -
26/01:30pm 27.4 SE 17 23 1015.5 - 0.2 - Partly cloudy 10 - - - -
26/01:19pm 26.8 SSE 16 26 1015.4 - 0.2 - - 10 - - - -
26/01:00pm 28.9 SSE 15 20 1015.6 - 0.2 - - 10 - - - -
26/12:30pm 28.9 SE 18 24 1015.8 - 0.2 - - 10 - - - -
26/12:00pm 29.0 SE 18 25 1016.0 - 0.2 - - 10 - - - -
26/11:30am 28.6 SE 17 23 1016.2 - 0.2 - - 10 - - - -
26/11:00am 28.4 SE 17 24 1016.4 - 0.2 - - 10 - - - -
26/10:30am 28.0 SSE 14 19 1016.5 - 0.2 - - 10 - - - -
26/10:00am 27.8 SSE 13 20 1016.6 - 0.2 - - 10 - - - -
26/09:30am 26.8 SSE 15 20 1016.5 - 0.2 - Partly cloudy 10 - - - -
26/09:00am 26.3 SSE 13 20 1016.3 - 2.0 - - 10 - - - -
26/08:30am 25.8 S 10 15 1016.2 - 2.0 - - 10 - - - -
26/08:00am 24.9 S 9 14 1016.1 - 2.0 - - 10 - - - -
26/07:30am 24.0 SSW 9 14 1015.8 - 2.0 - - 10 - - - -
26/07:00am 23.5 SSW 8 12 1015.5 - 2.0 - - 10 - - - -
26/06:30am 22.3 SSW 7 11 1015.2 - 2.0 - - 10 - - - -
26/06:00am 21.4 SSW 7 10 1014.9 - 2.0 - - 10 - - - -
26/05:30am 21.1 SSW 6 8 1014.4 - 2.0 - Partly cloudy 10 - - - -
26/05:00am 21.2 S 5 7 1014.0 - 2.0 - Partly cloudy 10 - - - -
26/04:30am 20.9 SSW 6 7 1014.0 - 2.0 - Partly cloudy 10 - - - -
26/04:00am 20.4 S 6 8 1013.7 - 2.0 - Partly cloudy 10 - - - -
26/03:30am 20.3 SSW 5 6 1013.8 - 2.0 - Partly cloudy 10 - - - -
26/03:00am 20.8 SSW 5 6 1014.0 - 2.0 Drizzle Cloudy 10 - - - -
26/02:30am 20.9 S 5 9 1014.2 - 1.8 - Partly cloudy 10 - - - -
26/02:00am 20.9 S 5 9 1014.3 - 1.6 - Partly cloudy 10 - - - -
26/01:45am 21.2 S 8 13 1014.3 - 1.6 - Partly cloudy 6 - - - -
26/01:30am 22.2 S 9 13 1014.3 - 0.0 - Partly cloudy 10 - - - -
26/01:00am 23.2 S 7 11 1014.7 - 0.0 - Partly cloudy 10 - - - -
26/12:30am 23.3 SSW 8 11 1015.2 - 0.0 - Partly cloudy 10 - - - -
26/12:00am 23.0 SSW 9 13 1015.5 - 0.0 - Mostly clear 10 - - - -
 
Date/Time
EST
Temp
°C
Wind Pressure Rain since
9am
mm
Weather Cloud Vis
km
Sea
Height
m
Swell
Dir  Spd
kts
Gust
kts
hPa Trend Height
m
Period
s
Dir
25/11:30pm 23.0 SW 7 11 1016.0 - 0.0 - Partly cloudy 10 - - - -
25/11:00pm 23.0 SSW 8 11 1016.3 - 0.0 - - 10 - - - -
25/10:30pm 23.2 SSW 9 14 1016.0 - 0.0 - - 10 - - - -
25/10:00pm 23.1 SSW 9 13 1016.0 - 0.0 - - 10 - - - -
25/09:30pm 23.1 SSW 8 12 1016.5 - 0.0 - - 10 - - - -
25/09:00pm 23.1 SSW 8 11 1016.3 - 0.0 - - 10 - - - -
25/08:30pm 23.3 SSW 7 11 1016.0 - 0.0 - - 10 - - - -
25/08:00pm 23.7 SSW 9 14 1015.7 - 0.0 - - 10 - - - -
25/07:30pm 23.9 S 11 14 1015.6 - 0.0 - Partly cloudy 10 - - - -
25/07:00pm 24.2 SSE 13 19 1015.4 - 0.0 - Partly cloudy 10 - - - -
25/06:30pm 24.6 SSE 15 20 1015.2 - 0.0 - Partly cloudy 10 - - - -
25/06:00pm 25.0 SSE 16 21 1014.8 - 0.0 - - 10 - - - -
25/05:30pm 25.8 SSE 15 20 1014.3 - 0.0 - - 10 - - - -
25/05:00pm 26.4 SSE 17 25 1014.1 - 0.0 - - 10 - - - -
25/04:30pm 27.0 SSE 18 26 1014.0 - 0.0 - - 10 - - - -
25/04:17pm 27.3 SSE 17 27 1013.9 - 0.0 - - 10 - - - -
25/04:00pm 27.5 SE 20 29 1013.8 - 0.0 - - 10 - - - -
25/03:52pm 27.3 SE 19 29 1013.8 - 0.0 - - 10 - - - -
25/03:30pm 27.6 SE 21 28 1013.7 - 0.0 - - 10 - - - -
25/03:00pm 27.8 SSE 19 29 1013.8 - 0.0 - - 10 - - - -
25/02:30pm 28.0 SE 22 32 1014.0 - 0.0 - - 10 - - - -
25/02:22pm 28.2 SE 22 32 1014.0 - 0.0 - - 10 - - - -
25/02:00pm 28.2 SSE 18 24 1014.3 - 0.0 - - 10 - - - -
25/01:30pm 28.5 SE 21 27 1014.6 - 0.0 - - 10 - - - -
25/01:00pm 29.2 SE 19 25 1015.0 - 0.0 - - 10 - - - -
25/12:30pm 30.1 SE 19 27 1015.1 - 0.0 - - 10 - - - -
25/12:08pm 29.2 SE 17 27 1015.3 - 0.0 - Partly cloudy 10 - - - -
25/12:00pm 28.9 SSE 14 22 1015.3 - 0.0 - Cloudy 10 - - - -
25/11:30am 30.5 SE 13 17 1015.4 - 0.0 - Partly cloudy 10 - - - -
25/11:00am 30.0 SSE 12 18 1015.9 - 0.0 - Partly cloudy 10 - - - -
25/10:30am 27.5 SSE 12 17 1016.3 - 0.0 - Partly cloudy 10 - - - -
25/10:00am 27.6 S 13 20 1016.7 - 0.0 - Partly cloudy 10 - - - -
25/09:30am 27.4 SSW 10 15 1016.8 - 0.0 - Partly cloudy 10 - - - -
25/09:00am 26.7 S 11 15 1016.7 - 0.0 - - 10 - - - -
25/08:30am 25.8 SSW 11 17 1016.8 - 0.0 - - 10 - - - -
25/08:00am 25.4 SSW 10 15 1016.7 - 0.0 - - 10 - - - -
25/07:30am 24.2 SSW 9 14 1016.8 - 0.0 - - 10 - - - -
25/07:00am 23.3 SSW 8 11 1016.6 - 0.0 - - 10 - - - -
25/06:30am 22.2 SSW 7 11 1016.4 - 0.0 - - 10 - - - -
25/06:00am 21.3 SSW 7 10 1016.2 - 0.0 - - 10 - - - -
25/05:30am 20.8 SSW 6 9 1015.9 - 0.0 - - 10 - - - -
25/05:00am 20.9 SSW 6 10 1015.8 - 0.0 - - 10 - - - -
25/04:30am 20.7 SSW 6 10 1015.7 - 0.0 - - 10 - - - -
25/04:00am 20.4 SSW 5 7 1015.5 - 0.0 - - 10 - - - -
25/03:30am 20.8 SSW 6 8 1015.4 - 0.0 - - 10 - - - -
25/03:00am 20.9 SSW 6 9 1015.4 - 0.0 - - 10 - - - -
25/02:30am 20.8 SSW 7 9 1015.5 - 0.0 - - 10 - - - -
25/02:00am 20.9 SSW 6 8 1015.6 - 0.0 - - 10 - - - -
25/01:30am 20.3 SSW 4 6 1015.6 - 0.0 - - 10 - - - -
25/01:00am 20.4 S 4 5 1015.9 - 0.0 - Partly cloudy 10 - - - -
25/12:30am 21.0 SSW 6 7 1016.1 - 0.0 - Partly cloudy 10 - - - -
25/12:00am 19.9 WSW 4 4 1016.3 - 0.0 - - 10 - - - -
 
Date/Time
EST
Temp
°C
Wind Pressure Rain since
9am
mm
Weather Cloud Vis
km
Sea
Height
m
Swell
Dir  Spd
kts
Gust
kts
hPa Trend Height
m
Period
s
Dir
24/11:30pm 20.3 WSW 5 6 1016.7 - 0.0 - Partly cloudy 10 - - - -
24/11:00pm 20.6 SW 4 6 1016.8 - 0.0 - Partly cloudy 10 - - - -
24/10:30pm 20.9 SSW 4 5 1016.8 - 0.0 - Partly cloudy 10 - - - -
24/10:00pm 21.7 SSW 5 6 1017.1 - 0.0 - - 10 - - - -
24/09:30pm 21.9 SSW 4 5 1017.2 - 0.0 - - 10 - - - -
24/09:00pm 22.2 SSW 4 5 1017.3 - 0.0 - - 10 - - - -
24/08:30pm 22.7 S 4 5 1017.4 - 0.0 - - 10 - - - -
24/08:00pm 22.7 S 4 6 1017.2 - 0.0 - Partly cloudy 10 - - - -
24/07:30pm 23.4 SSE 5 7 1017.1 - 0.0 - - 10 - - - -
24/07:00pm 24.3 SSE 8 10 1016.9 - 0.0 - - 10 - - - -
24/06:30pm 24.6 SSE 9 13 1016.7 - 0.0 - Partly cloudy 10 - - - -
24/06:00pm 25.3 SSE 10 14 1016.5 - 0.0 - Partly cloudy 10 - - - -
24/05:30pm 25.9 SE 13 18 1016.4 - 0.0 - - 10 - - - -
24/05:00pm 26.4 SSE 13 18 1016.2 - 0.0 - - 10 - - - -
24/04:30pm 27.2 SE 15 19 1016.1 - 0.0 - - 10 - - - -
24/04:00pm 28.3 SE 15 21 1015.9 - 0.0 - - 10 - - - -
24/03:30pm 28.1 ESE 16 19 1015.9 - 0.0 - - 10 - - - -
24/03:00pm 28.7 ESE 16 19 1016.1 - 0.0 - - 10 - - - -
24/02:30pm 28.7 ESE 16 19 1016.3 - 0.0 - - 10 - - - -
24/02:00pm 29.1 SE 14 19 1016.5 - 0.0 - - 10 - - - -
24/01:30pm 29.0 ESE 16 19 1016.7 - 0.0 - - 10 - - - -
24/01:00pm 29.5 ESE 14 18 1017.0 - 0.0 - - 10 - - - -
24/12:30pm 29.8 ESE 14 18 1017.4 - 0.0 - - 10 - - - -
24/12:00pm 29.7 ESE 13 17 1017.7 - 0.0 - - 10 - - - -
24/11:30am 29.0 ESE 14 19 1018.0 - 0.0 - Partly cloudy 10 - - - -
24/11:00am 29.1 ESE 13 17 1018.3 - 0.0 - Cloudy 10 - - - -
24/10:30am 27.5 S 7 11 1018.7 - 0.0 - Partly cloudy 10 - - - -
24/10:00am 27.1 S 7 11 1018.8 - 0.0 - Partly cloudy 10 - - - -
24/09:30am 27.7 S 7 11 1018.9 - 0.0 - Partly cloudy 10 - - - -
24/09:00am 26.8 S 9 12 1019.0 - 0.0 - - 10 - - - -
24/08:30am 26.3 SW 8 11 1019.0 - 0.0 - - 10 - - - -
24/08:00am 25.8 SSW 10 13 1018.8 - 0.0 - - 10 - - - -
24/07:30am 24.5 SSW 7 10 1018.5 - 0.0 - - 10 - - - -
24/07:00am 23.5 SSW 7 9 1018.4 - 0.0 - Partly cloudy 10 - - - -
24/06:30am 22.1 SSW 7 9 1018.2 - 0.0 - - 10 - - - -
24/06:00am 20.8 SSW 5 8 1017.9 - 0.0 - - 10 - - - -
24/05:30am 20.7 SSW 5 7 1017.5 - 0.0 - - 10 - - - -
24/05:00am 20.1 SSW 5 6 1017.2 - 0.0 - - 10 - - - -
24/04:30am 20.0 S 5 6 1017.0 - 0.0 - - 10 - - - -
24/04:00am 20.2 SSW 4 5 1016.9 - 0.0 - - 10 - - - -
24/03:30am 20.5 SSW 5 7 1017.0 - 0.0 - Partly cloudy 10 - - - -
24/03:00am 21.0 SSW 6 7 1017.1 - 0.0 - - 10 - - - -
24/02:30am 20.7 SSW 6 7 1017.2 - 0.0 - - 10 - - - -
24/02:00am 20.7 SSW 3 4 1017.4 - 0.0 - - 10 - - - -
24/01:30am 20.7 SSW 4 6 1017.7 - 0.0 - Partly cloudy 10 - - - -
24/01:00am 21.1 SSW 4 5 1017.9 - 0.0 - - 10 - - - -
24/12:30am 21.4 SSW 5 6 1018.1 - 0.0 - Partly cloudy 10 - - - -
24/12:00am 22.0 SSW 7 9 1018.3 - 0.0 - Mostly cloudy 10 - - - -
 
Date/Time
EST
Temp
°C
Wind Pressure Rain since
9am
mm
Weather Cloud Vis
km
Sea
Height
m
Swell
Dir  Spd
kts
Gust
kts
hPa Trend Height
m
Period
s
Dir
23/11:30pm 21.8 SSW 4 6 1018.6 - 0.0 - Partly cloudy 10 - - - -
23/11:00pm 21.6 SSW 5 7 1018.7 - 0.0 - - 10 - - - -
23/10:30pm 20.7 WSW 4 6 1018.9 - 0.0 - - 10 - - - -
23/10:00pm 22.0 SSW 5 6 1019.1 - 0.0 - - 10 - - - -
23/09:30pm 22.5 SSW 6 8 1019.2 - 0.0 - - 10 - - - -
23/09:00pm 22.4 SSW 5 6 1019.2 - 0.0 - - 10 - - - -
23/08:30pm 22.8 SSW 5 7 1019.1 - 0.0 - - 10 - - - -
23/08:00pm 23.1 S 5 7 1018.8 - 0.0 - - 10 - - - -
23/07:30pm 23.8 SSE 7 10 1018.7 - 0.0 - - 10 - - - -
23/07:00pm 24.2 SSE 8 12 1018.4 - 0.0 - - 10 - - - -
23/06:30pm 24.5 SSE 9 14 1018.3 - 0.0 - - 10 - - - -
23/06:00pm 25.1 SSE 12 17 1018.1 - 0.0 - - 10 - - - -
23/05:30pm 25.8 SE 16 20 1017.8 - 0.0 - - 10 - - - -
23/05:00pm 26.5 SE 15 21 1017.5 - 0.0 - - 10 - - - -
23/04:30pm 27.6 SE 15 19 1017.5 - 0.0 - Partly cloudy 10 - - - -
23/04:00pm 27.5 SE 16 21 1017.4 - 0.0 - - 10 - - - -

Other Formats:

Comma delimited format used in spreadsheet applications
http://www.bom.gov.au/fwo/IDQ60701/IDQ60701.94592.axf

JavaScript Object Notation format (JSON) in row-major order
http://www.bom.gov.au/fwo/IDQ60701/IDQ60701.94592.json